目前分類:電源專區 (39)

瀏覽方式: 標題列表 簡短摘要
發表時間 文章標題 人氣 留言
2018-01-22 海韻PRIME Ultra Titanium 650W(SSR-650TR)電源供應器測試 (981) (0)
2017-11-30 Corsair AX1500i電源供應器測試 (561) (0)
2017-11-14 海韻PRIME Titanium 650W電源供應器簡介及測試 (1516) (0)
2017-11-10 Antec NeoECO GOLD系列750W電源供應器簡介及測試 (1957) (3)
2017-09-29 全漢Hydro PT皇鈦極V 750W簡介及測試 (1399) (0)
2017-09-22 Thermaltake ToughPower Grand RGB 850測試 (288) (0)
2017-09-22 全漢皇鈦極AURUM PT-1000FM測試 (286) (0)
2017-09-22 振華Leadex Titanium 750W電源供應器測試 (1971) (0)
2017-09-21 銅牌加雙DC-DC的Antec Neo ECO II 650W測試 (715) (0)
2017-09-21 Antec EDGE 650全模組化電源供應器測試 (544) (0)
2017-09-07 振華LEADEX PLATINUM 1000W電源供應器測試 (826) (0)
2017-09-07 Antec High Current Pro 850 Platinum電源供應器測試 (441) (0)
2017-08-27 Thermaltake ToughPower Grand RGB 850拆解 (753) (2)
2017-08-25 Antec EDGE 650全模組化電源供應器拆解 (2248) (0)
2017-08-12 全漢皇鈦極AURUM PT-1000FM拆解 (870) (1)
2017-08-11 小瓦數金牌Antec TruePower Classic 450W拆解 (1078) (0)
2017-08-10 銅牌加雙DC-DC的Antec Neo ECO II 650W拆解 (2285) (2)
2017-08-06 振華白金冰蝶750W拆解 (1430) (0)
2017-08-05 振華LEADEX PLATINUM 1000W電源供應器拆解 (3142) (0)
2017-08-04 Antec High Current Pro 850 Platinum電源供應器拆解 (1504) (2)
2017-07-17 Cooler Master MasterWatt Maker 1200 MIJ電源供應器-測試篇 (2223) (2)
2017-07-11 Cooler Master MasterWatt Maker 1200 MIJ電源供應器-解析篇 (5000) (9)
2013-04-03 海韻金牌G系列550W模組化電源供應器簡介及測試 (31075) (20)
2013-03-23 Thermaltake Toughpower 650W金牌直出線電源簡介及測試 (5334) (2)
2013-03-07 Enermax Platimax白金認證全模組化1200W電源供應器簡介及測試 (3568) (3)
2013-03-02 全漢皇鈦極650W模組化白金電源簡介及測試 (18115) (0)
2013-02-02 VANTEC VOLTRA550模組化電源供應器簡介及測試 (2224) (1)
2013-01-28 Cooler Master新款Silent Pro Gold金牌直出線450W與550W電源簡介及測試 (8597) (6)
2012-10-07 帝海影隼S極致白金版1000W電源供應器簡介及測試 (3247) (2)
2012-08-20 CORSAIR AX1200i數位化全模組1200W電源供應器簡介及測試 (14015) (0)
2011-07-22 THORTECH THUNDERBOLT PLUS硬體監控800W電源供應器-介紹篇 (1742) (2)
2011-07-10 振華冰山金蝶PLUS 500W電源供應器-介紹篇 (13192) (6)
2011-07-10 TT Toughpower Grand 750W電源供應器-介紹篇 (4455) (0)
2011-07-04 be quiet! STRAIGHTPOWER GOLDEN 650W電源供應器-介紹篇 (5842) (4)
2011-07-04 帝海影隼II 80PLUS金牌550W電源供應器-介紹篇 (17820) (12)
2011-06-12 全漢AURUM金鈦極AU-400 400W電源供應器-介紹篇 (27068) (22)
2011-06-12 WIN-TACT萬加WP617F15 600W電源供應器-介紹篇 (1624) (0)
2011-06-06 COMPUTEX 2011電源系列產品總覽 (3120) (1)
2008-08-31 銀欣STRIDER系列ST50F 500W電源供應器簡介及測試 (2697) (0)